sensor_id;sensor_type;location;lat;lon;timestamp;P1;durP1;ratioP1;P2;durP2;ratioP2
21356;SDS011;10836;53.068;18.234;2023-04-15T00:01:35;15.47;;;8.63;;
21356;SDS011;10836;53.068;18.234;2023-04-15T00:04:03;13.30;;;8.73;;
21356;SDS011;10836;53.068;18.234;2023-04-15T00:06:30;17.03;;;9.63;;
21356;SDS011;10836;53.068;18.234;2023-04-15T00:08:57;16.40;;;8.77;;
21356;SDS011;10836;53.068;18.234;2023-04-15T00:11:24;18.37;;;10.43;;
21356;SDS011;10836;53.068;18.234;2023-04-15T00:13:52;14.60;;;8.90;;
21356;SDS011;10836;53.068;18.234;2023-04-15T00:16:18;14.23;;;8.93;;
21356;SDS011;10836;53.068;18.234;2023-04-15T00:18:46;15.83;;;9.50;;
21356;SDS011;10836;53.068;18.234;2023-04-15T00:21:13;15.17;;;9.13;;
21356;SDS011;10836;53.068;18.234;2023-04-15T00:23:40;15.40;;;9.83;;
21356;SDS011;10836;53.068;18.234;2023-04-15T00:26:07;15.93;;;9.90;;
21356;SDS011;10836;53.068;18.234;2023-04-15T00:28:34;16.73;;;10.70;;
21356;SDS011;10836;53.068;18.234;2023-04-15T00:31:02;15.23;;;9.97;;
21356;SDS011;10836;53.068;18.234;2023-04-15T00:33:29;17.80;;;10.70;;
21356;SDS011;10836;53.068;18.234;2023-04-15T00:35:56;16.87;;;10.27;;
21356;SDS011;10836;53.068;18.234;2023-04-15T00:38:23;21.73;;;11.13;;
21356;SDS011;10836;53.068;18.234;2023-04-15T00:40:50;16.73;;;10.63;;
21356;SDS011;10836;53.068;18.234;2023-04-15T00:43:17;18.63;;;10.70;;
21356;SDS011;10836;53.068;18.234;2023-04-15T00:45:44;23.27;;;11.17;;
21356;SDS011;10836;53.068;18.234;2023-04-15T00:48:12;16.23;;;10.37;;
21356;SDS011;10836;53.068;18.234;2023-04-15T00:50:39;19.10;;;11.70;;
21356;SDS011;10836;53.068;18.234;2023-04-15T00:53:07;19.40;;;10.93;;
21356;SDS011;10836;53.068;18.234;2023-04-15T00:55:33;20.23;;;11.07;;
21356;SDS011;10836;53.068;18.234;2023-04-15T00:58:02;18.73;;;11.83;;
21356;SDS011;10836;53.068;18.234;2023-04-15T01:00:28;21.30;;;11.10;;
21356;SDS011;10836;53.068;18.234;2023-04-15T01:02:57;16.40;;;11.23;;
21356;SDS011;10836;53.068;18.234;2023-04-15T01:05:24;16.50;;;10.97;;
21356;SDS011;10836;53.068;18.234;2023-04-15T01:07:53;23.10;;;11.80;;
21356;SDS011;10836;53.068;18.234;2023-04-15T01:10:20;18.50;;;11.53;;
21356;SDS011;10836;53.068;18.234;2023-04-15T01:12:47;20.97;;;11.13;;
21356;SDS011;10836;53.068;18.234;2023-04-15T01:15:14;20.87;;;11.87;;
21356;SDS011;10836;53.068;18.234;2023-04-15T01:17:42;22.07;;;11.00;;
21356;SDS011;10836;53.068;18.234;2023-04-15T01:20:08;21.93;;;11.60;;
21356;SDS011;10836;53.068;18.234;2023-04-15T01:22:37;17.57;;;10.83;;
21356;SDS011;10836;53.068;18.234;2023-04-15T01:25:10;20.93;;;10.63;;
21356;SDS011;10836;53.068;18.234;2023-04-15T01:27:43;17.00;;;11.07;;
21356;SDS011;10836;53.068;18.234;2023-04-15T01:30:10;18.60;;;10.77;;
21356;SDS011;10836;53.068;18.234;2023-04-15T01:32:37;18.57;;;11.90;;
21356;SDS011;10836;53.068;18.234;2023-04-15T01:35:04;19.03;;;11.57;;
21356;SDS011;10836;53.068;18.234;2023-04-15T01:37:32;18.23;;;11.20;;
21356;SDS011;10836;53.068;18.234;2023-04-15T01:39:59;20.83;;;12.70;;
21356;SDS011;10836;53.068;18.234;2023-04-15T01:42:26;18.50;;;11.10;;
21356;SDS011;10836;53.068;18.234;2023-04-15T01:44:53;20.97;;;12.80;;
21356;SDS011;10836;53.068;18.234;2023-04-15T01:47:20;20.37;;;11.80;;
21356;SDS011;10836;53.068;18.234;2023-04-15T01:49:48;18.70;;;10.90;;
21356;SDS011;10836;53.068;18.234;2023-04-15T01:52:15;20.10;;;11.67;;
21356;SDS011;10836;53.068;18.234;2023-04-15T01:54:41;18.13;;;10.97;;
21356;SDS011;10836;53.068;18.234;2023-04-15T01:57:10;22.07;;;11.50;;
21356;SDS011;10836;53.068;18.234;2023-04-15T01:59:37;17.17;;;10.43;;
21356;SDS011;10836;53.068;18.234;2023-04-15T02:02:04;20.47;;;12.10;;
21356;SDS011;10836;53.068;18.234;2023-04-15T02:04:31;20.93;;;11.37;;
21356;SDS011;10836;53.068;18.234;2023-04-15T02:07:00;18.27;;;10.57;;
21356;SDS011;10836;53.068;18.234;2023-04-15T02:09:27;18.37;;;11.73;;
21356;SDS011;10836;53.068;18.234;2023-04-15T02:11:54;22.77;;;12.07;;
21356;SDS011;10836;53.068;18.234;2023-04-15T02:14:22;18.03;;;11.13;;
21356;SDS011;10836;53.068;18.234;2023-04-15T02:16:49;17.80;;;11.20;;
21356;SDS011;10836;53.068;18.234;2023-04-15T02:19:17;19.53;;;12.07;;
21356;SDS011;10836;53.068;18.234;2023-04-15T02:21:44;17.10;;;10.80;;
21356;SDS011;10836;53.068;18.234;2023-04-15T02:24:11;19.67;;;11.40;;
21356;SDS011;10836;53.068;18.234;2023-04-15T02:26:40;18.67;;;10.27;;
21356;SDS011;10836;53.068;18.234;2023-04-15T02:29:07;16.80;;;10.32;;
21356;SDS011;10836;53.068;18.234;2023-04-15T02:31:34;18.73;;;10.87;;
21356;SDS011;10836;53.068;18.234;2023-04-15T02:34:05;18.73;;;11.47;;
21356;SDS011;10836;53.068;18.234;2023-04-15T02:36:33;17.10;;;11.60;;
21356;SDS011;10836;53.068;18.234;2023-04-15T02:39:00;18.07;;;10.57;;
21356;SDS011;10836;53.068;18.234;2023-04-15T02:41:28;18.80;;;12.07;;
21356;SDS011;10836;53.068;18.234;2023-04-15T02:43:56;18.23;;;10.73;;
21356;SDS011;10836;53.068;18.234;2023-04-15T02:46:23;16.60;;;10.83;;
21356;SDS011;10836;53.068;18.234;2023-04-15T02:48:50;17.07;;;10.13;;
21356;SDS011;10836;53.068;18.234;2023-04-15T02:51:20;16.27;;;10.40;;
21356;SDS011;10836;53.068;18.234;2023-04-15T02:53:48;16.63;;;10.80;;
21356;SDS011;10836;53.068;18.234;2023-04-15T02:56:16;17.57;;;11.20;;
21356;SDS011;10836;53.068;18.234;2023-04-15T02:58:45;18.47;;;10.23;;
21356;SDS011;10836;53.068;18.234;2023-04-15T03:01:12;17.77;;;10.63;;
21356;SDS011;10836;53.068;18.234;2023-04-15T03:03:40;17.65;;;10.07;;
21356;SDS011;10836;53.068;18.234;2023-04-15T03:06:07;21.67;;;11.00;;
21356;SDS011;10836;53.068;18.234;2023-04-15T03:08:34;16.67;;;10.97;;
21356;SDS011;10836;53.068;18.234;2023-04-15T03:11:02;16.42;;;10.60;;
21356;SDS011;10836;53.068;18.234;2023-04-15T03:13:30;17.77;;;10.73;;
21356;SDS011;10836;53.068;18.234;2023-04-15T03:16:02;16.83;;;10.95;;
21356;SDS011;10836;53.068;18.234;2023-04-15T03:18:30;19.98;;;11.90;;
21356;SDS011;10836;53.068;18.234;2023-04-15T03:21:00;17.60;;;10.40;;
21356;SDS011;10836;53.068;18.234;2023-04-15T03:23:31;15.70;;;10.20;;
21356;SDS011;10836;53.068;18.234;2023-04-15T03:26:00;17.55;;;11.20;;
21356;SDS011;10836;53.068;18.234;2023-04-15T03:28:29;14.23;;;9.70;;
21356;SDS011;10836;53.068;18.234;2023-04-15T03:30:58;17.43;;;10.87;;
21356;SDS011;10836;53.068;18.234;2023-04-15T03:33:25;16.90;;;10.20;;
21356;SDS011;10836;53.068;18.234;2023-04-15T03:35:52;16.70;;;10.35;;
21356;SDS011;10836;53.068;18.234;2023-04-15T03:38:18;15.37;;;10.27;;
21356;SDS011;10836;53.068;18.234;2023-04-15T03:40:46;16.83;;;10.40;;
21356;SDS011;10836;53.068;18.234;2023-04-15T03:43:13;15.83;;;10.17;;
21356;SDS011;10836;53.068;18.234;2023-04-15T03:45:40;16.67;;;9.73;;
21356;SDS011;10836;53.068;18.234;2023-04-15T03:48:07;15.10;;;10.30;;
21356;SDS011;10836;53.068;18.234;2023-04-15T03:50:43;19.23;;;10.53;;
21356;SDS011;10836;53.068;18.234;2023-04-15T03:53:10;16.37;;;10.27;;
21356;SDS011;10836;53.068;18.234;2023-04-15T03:55:37;14.68;;;9.80;;
21356;SDS011;10836;53.068;18.234;2023-04-15T03:58:04;15.80;;;10.30;;
21356;SDS011;10836;53.068;18.234;2023-04-15T04:00:31;14.32;;;9.93;;
21356;SDS011;10836;53.068;18.234;2023-04-15T04:02:58;16.73;;;10.10;;
21356;SDS011;10836;53.068;18.234;2023-04-15T04:05:26;14.50;;;9.70;;
21356;SDS011;10836;53.068;18.234;2023-04-15T04:07:52;16.30;;;10.27;;
21356;SDS011;10836;53.068;18.234;2023-04-15T04:10:19;16.37;;;10.30;;
21356;SDS011;10836;53.068;18.234;2023-04-15T04:12:46;14.90;;;9.48;;
21356;SDS011;10836;53.068;18.234;2023-04-15T04:15:13;17.07;;;9.90;;
21356;SDS011;10836;53.068;18.234;2023-04-15T04:17:40;23.23;;;9.53;;
21356;SDS011;10836;53.068;18.234;2023-04-15T04:20:08;13.97;;;9.27;;
21356;SDS011;10836;53.068;18.234;2023-04-15T04:22:38;15.27;;;9.33;;
21356;SDS011;10836;53.068;18.234;2023-04-15T04:25:06;13.55;;;9.00;;
21356;SDS011;10836;53.068;18.234;2023-04-15T04:27:35;12.27;;;8.87;;
21356;SDS011;10836;53.068;18.234;2023-04-15T04:30:03;15.13;;;9.80;;
21356;SDS011;10836;53.068;18.234;2023-04-15T04:32:30;16.03;;;9.07;;
21356;SDS011;10836;53.068;18.234;2023-04-15T04:34:58;16.10;;;10.03;;
21356;SDS011;10836;53.068;18.234;2023-04-15T04:37:24;14.83;;;9.83;;
21356;SDS011;10836;53.068;18.234;2023-04-15T04:39:52;15.68;;;9.98;;
21356;SDS011;10836;53.068;18.234;2023-04-15T04:42:19;16.13;;;9.23;;
21356;SDS011;10836;53.068;18.234;2023-04-15T04:44:46;14.07;;;8.73;;
21356;SDS011;10836;53.068;18.234;2023-04-15T04:47:13;14.70;;;8.80;;
21356;SDS011;10836;53.068;18.234;2023-04-15T04:49:40;12.60;;;8.70;;
21356;SDS011;10836;53.068;18.234;2023-04-15T04:52:06;14.63;;;9.13;;
21356;SDS011;10836;53.068;18.234;2023-04-15T04:54:34;14.47;;;9.23;;
21356;SDS011;10836;53.068;18.234;2023-04-15T04:57:01;18.90;;;9.73;;
21356;SDS011;10836;53.068;18.234;2023-04-15T04:59:28;16.90;;;10.07;;
21356;SDS011;10836;53.068;18.234;2023-04-15T05:01:55;16.00;;;8.82;;
21356;SDS011;10836;53.068;18.234;2023-04-15T05:04:23;14.50;;;9.27;;
21356;SDS011;10836;53.068;18.234;2023-04-15T05:06:49;19.37;;;10.73;;
21356;SDS011;10836;53.068;18.234;2023-04-15T05:09:17;14.07;;;8.97;;
21356;SDS011;10836;53.068;18.234;2023-04-15T05:11:44;15.25;;;9.32;;
21356;SDS011;10836;53.068;18.234;2023-04-15T05:14:11;14.38;;;9.32;;
21356;SDS011;10836;53.068;18.234;2023-04-15T05:16:38;16.73;;;10.10;;
21356;SDS011;10836;53.068;18.234;2023-04-15T05:19:05;16.07;;;9.43;;
21356;SDS011;10836;53.068;18.234;2023-04-15T05:21:33;14.82;;;9.57;;
21356;SDS011;10836;53.068;18.234;2023-04-15T05:24:00;21.83;;;10.60;;
21356;SDS011;10836;53.068;18.234;2023-04-15T05:26:27;17.92;;;10.32;;
21356;SDS011;10836;53.068;18.234;2023-04-15T05:28:54;18.48;;;9.73;;
21356;SDS011;10836;53.068;18.234;2023-04-15T05:31:21;15.98;;;9.40;;
21356;SDS011;10836;53.068;18.234;2023-04-15T05:33:48;15.85;;;10.82;;
21356;SDS011;10836;53.068;18.234;2023-04-15T05:36:15;15.82;;;10.45;;
21356;SDS011;10836;53.068;18.234;2023-04-15T05:38:42;15.60;;;9.52;;
21356;SDS011;10836;53.068;18.234;2023-04-15T05:41:09;19.83;;;10.93;;
21356;SDS011;10836;53.068;18.234;2023-04-15T05:43:36;20.48;;;12.02;;
21356;SDS011;10836;53.068;18.234;2023-04-15T05:46:02;15.50;;;10.45;;
21356;SDS011;10836;53.068;18.234;2023-04-15T05:48:30;16.15;;;10.80;;
21356;SDS011;10836;53.068;18.234;2023-04-15T05:50:56;19.02;;;11.82;;
21356;SDS011;10836;53.068;18.234;2023-04-15T05:53:24;15.20;;;10.37;;
21356;SDS011;10836;53.068;18.234;2023-04-15T05:55:50;17.83;;;11.95;;
21356;SDS011;10836;53.068;18.234;2023-04-15T05:58:18;18.77;;;12.60;;
21356;SDS011;10836;53.068;18.234;2023-04-15T06:00:44;18.70;;;12.27;;
21356;SDS011;10836;53.068;18.234;2023-04-15T06:03:12;21.97;;;13.00;;
21356;SDS011;10836;53.068;18.234;2023-04-15T06:05:39;24.25;;;13.65;;
21356;SDS011;10836;53.068;18.234;2023-04-15T06:08:06;20.97;;;14.23;;
21356;SDS011;10836;53.068;18.234;2023-04-15T06:10:34;20.88;;;13.93;;
21356;SDS011;10836;53.068;18.234;2023-04-15T06:13:02;20.98;;;14.10;;
21356;SDS011;10836;53.068;18.234;2023-04-15T06:15:29;24.23;;;15.00;;
21356;SDS011;10836;53.068;18.234;2023-04-15T06:17:57;23.07;;;14.23;;
21356;SDS011;10836;53.068;18.234;2023-04-15T06:20:24;23.25;;;15.35;;
21356;SDS011;10836;53.068;18.234;2023-04-15T06:22:51;22.37;;;14.60;;
21356;SDS011;10836;53.068;18.234;2023-04-15T06:25:18;23.50;;;15.70;;
21356;SDS011;10836;53.068;18.234;2023-04-15T06:27:46;21.93;;;15.10;;
21356;SDS011;10836;53.068;18.234;2023-04-15T06:30:13;22.73;;;15.50;;
21356;SDS011;10836;53.068;18.234;2023-04-15T06:32:40;27.70;;;16.47;;
21356;SDS011;10836;53.068;18.234;2023-04-15T06:35:07;25.67;;;16.30;;
21356;SDS011;10836;53.068;18.234;2023-04-15T06:37:35;26.33;;;15.83;;
21356;SDS011;10836;53.068;18.234;2023-04-15T06:40:02;25.97;;;16.70;;
21356;SDS011;10836;53.068;18.234;2023-04-15T06:42:30;29.67;;;17.93;;
21356;SDS011;10836;53.068;18.234;2023-04-15T06:44:58;30.47;;;17.37;;
21356;SDS011;10836;53.068;18.234;2023-04-15T06:47:25;24.20;;;17.07;;
21356;SDS011;10836;53.068;18.234;2023-04-15T06:49:52;26.83;;;16.67;;
21356;SDS011;10836;53.068;18.234;2023-04-15T06:52:19;24.10;;;16.67;;
21356;SDS011;10836;53.068;18.234;2023-04-15T06:54:45;23.60;;;16.33;;
21356;SDS011;10836;53.068;18.234;2023-04-15T06:57:13;25.83;;;15.67;;
21356;SDS011;10836;53.068;18.234;2023-04-15T06:59:39;23.17;;;15.27;;
21356;SDS011;10836;53.068;18.234;2023-04-15T07:02:06;23.57;;;16.17;;
21356;SDS011;10836;53.068;18.234;2023-04-15T07:04:37;25.83;;;16.50;;
21356;SDS011;10836;53.068;18.234;2023-04-15T07:07:06;27.50;;;16.20;;
21356;SDS011;10836;53.068;18.234;2023-04-15T07:09:33;23.40;;;15.27;;
21356;SDS011;10836;53.068;18.234;2023-04-15T07:12:00;20.93;;;15.07;;
21356;SDS011;10836;53.068;18.234;2023-04-15T07:14:27;24.53;;;15.37;;
21356;SDS011;10836;53.068;18.234;2023-04-15T07:16:55;21.70;;;14.50;;
21356;SDS011;10836;53.068;18.234;2023-04-15T07:19:22;20.20;;;14.93;;
21356;SDS011;10836;53.068;18.234;2023-04-15T07:21:49;23.20;;;15.40;;
21356;SDS011;10836;53.068;18.234;2023-04-15T07:24:15;26.90;;;16.27;;
21356;SDS011;10836;53.068;18.234;2023-04-15T07:26:44;23.37;;;16.03;;
21356;SDS011;10836;53.068;18.234;2023-04-15T07:29:11;23.10;;;16.63;;
21356;SDS011;10836;53.068;18.234;2023-04-15T07:31:39;26.67;;;15.83;;
21356;SDS011;10836;53.068;18.234;2023-04-15T07:34:06;23.07;;;17.23;;
21356;SDS011;10836;53.068;18.234;2023-04-15T07:36:33;26.57;;;17.50;;
21356;SDS011;10836;53.068;18.234;2023-04-15T07:39:00;26.07;;;16.63;;
21356;SDS011;10836;53.068;18.234;2023-04-15T07:41:29;22.70;;;15.33;;
21356;SDS011;10836;53.068;18.234;2023-04-15T07:43:57;25.60;;;15.60;;
21356;SDS011;10836;53.068;18.234;2023-04-15T07:46:24;22.53;;;15.07;;
21356;SDS011;10836;53.068;18.234;2023-04-15T07:48:52;20.95;;;15.30;;
21356;SDS011;10836;53.068;18.234;2023-04-15T07:51:20;25.03;;;16.13;;
21356;SDS011;10836;53.068;18.234;2023-04-15T07:53:48;21.07;;;15.67;;
21356;SDS011;10836;53.068;18.234;2023-04-15T07:56:16;23.40;;;13.40;;
21356;SDS011;10836;53.068;18.234;2023-04-15T07:58:42;24.67;;;14.97;;
21356;SDS011;10836;53.068;18.234;2023-04-15T08:01:09;21.40;;;13.80;;
21356;SDS011;10836;53.068;18.234;2023-04-15T08:03:37;24.10;;;14.70;;
21356;SDS011;10836;53.068;18.234;2023-04-15T08:06:05;23.25;;;14.40;;
21356;SDS011;10836;53.068;18.234;2023-04-15T08:08:32;21.57;;;13.97;;
21356;SDS011;10836;53.068;18.234;2023-04-15T08:10:59;22.17;;;13.93;;
21356;SDS011;10836;53.068;18.234;2023-04-15T08:13:26;21.87;;;14.57;;
21356;SDS011;10836;53.068;18.234;2023-04-15T08:18:47;25.27;;;14.73;;
21356;SDS011;10836;53.068;18.234;2023-04-15T08:21:16;23.23;;;14.43;;
21356;SDS011;10836;53.068;18.234;2023-04-15T08:23:44;21.77;;;13.57;;
21356;SDS011;10836;53.068;18.234;2023-04-15T08:26:13;21.10;;;14.00;;
21356;SDS011;10836;53.068;18.234;2023-04-15T08:28:40;21.27;;;13.53;;
21356;SDS011;10836;53.068;18.234;2023-04-15T08:31:08;27.20;;;14.93;;
21356;SDS011;10836;53.068;18.234;2023-04-15T08:33:35;23.73;;;14.87;;
21356;SDS011;10836;53.068;18.234;2023-04-15T08:36:03;24.02;;;15.00;;
21356;SDS011;10836;53.068;18.234;2023-04-15T08:38:30;19.73;;;14.63;;
21356;SDS011;10836;53.068;18.234;2023-04-15T08:40:59;19.73;;;14.07;;
21356;SDS011;10836;53.068;18.234;2023-04-15T08:43:32;26.33;;;14.50;;
21356;SDS011;10836;53.068;18.234;2023-04-15T08:46:00;23.42;;;13.95;;
21356;SDS011;10836;53.068;18.234;2023-04-15T08:48:28;18.20;;;13.20;;
21356;SDS011;10836;53.068;18.234;2023-04-15T08:50:58;21.17;;;13.88;;
21356;SDS011;10836;53.068;18.234;2023-04-15T08:53:27;23.08;;;13.93;;
21356;SDS011;10836;53.068;18.234;2023-04-15T08:55:56;21.20;;;13.95;;
21356;SDS011;10836;53.068;18.234;2023-04-15T08:58:24;20.70;;;13.90;;
21356;SDS011;10836;53.068;18.234;2023-04-15T09:00:51;22.10;;;14.48;;
21356;SDS011;10836;53.068;18.234;2023-04-15T09:03:18;25.03;;;14.07;;
21356;SDS011;10836;53.068;18.234;2023-04-15T09:05:47;21.63;;;15.13;;
21356;SDS011;10836;53.068;18.234;2023-04-15T09:08:18;23.73;;;15.57;;
21356;SDS011;10836;53.068;18.234;2023-04-15T09:10:45;25.30;;;14.70;;
21356;SDS011;10836;53.068;18.234;2023-04-15T09:13:12;17.50;;;13.27;;
21356;SDS011;10836;53.068;18.234;2023-04-15T09:15:39;20.58;;;13.77;;
21356;SDS011;10836;53.068;18.234;2023-04-15T09:18:07;22.55;;;14.45;;
21356;SDS011;10836;53.068;18.234;2023-04-15T09:20:40;21.92;;;15.18;;
21356;SDS011;10836;53.068;18.234;2023-04-15T09:23:14;25.10;;;16.23;;
21356;SDS011;10836;53.068;18.234;2023-04-15T09:25:43;25.67;;;16.90;;
21356;SDS011;10836;53.068;18.234;2023-04-15T09:28:10;24.85;;;15.80;;
21356;SDS011;10836;53.068;18.234;2023-04-15T09:30:37;21.58;;;14.20;;
21356;SDS011;10836;53.068;18.234;2023-04-15T09:33:04;21.48;;;15.32;;
21356;SDS011;10836;53.068;18.234;2023-04-15T09:35:34;21.88;;;14.23;;
21356;SDS011;10836;53.068;18.234;2023-04-15T09:38:03;20.55;;;13.07;;
21356;SDS011;10836;53.068;18.234;2023-04-15T09:40:36;33.30;;;19.02;;
21356;SDS011;10836;53.068;18.234;2023-04-15T09:43:05;23.27;;;13.57;;
21356;SDS011;10836;53.068;18.234;2023-04-15T09:45:34;43.97;;;23.83;;
21356;SDS011;10836;53.068;18.234;2023-04-15T09:50:43;21.70;;;13.23;;
21356;SDS011;10836;53.068;18.234;2023-04-15T09:53:10;25.33;;;16.98;;
21356;SDS011;10836;53.068;18.234;2023-04-15T09:55:47;23.92;;;15.25;;
21356;SDS011;10836;53.068;18.234;2023-04-15T09:58:23;22.50;;;14.27;;
21356;SDS011;10836;53.068;18.234;2023-04-15T10:00:53;19.98;;;13.60;;
21356;SDS011;10836;53.068;18.234;2023-04-15T10:03:22;19.67;;;13.25;;
21356;SDS011;10836;53.068;18.234;2023-04-15T10:05:55;24.20;;;14.55;;
21356;SDS011;10836;53.068;18.234;2023-04-15T10:08:24;22.15;;;13.50;;
21356;SDS011;10836;53.068;18.234;2023-04-15T10:10:53;25.70;;;16.83;;
21356;SDS011;10836;53.068;18.234;2023-04-15T10:13:22;23.55;;;15.20;;
21356;SDS011;10836;53.068;18.234;2023-04-15T10:16:03;23.70;;;14.75;;
21356;SDS011;10836;53.068;18.234;2023-04-15T10:18:37;20.52;;;13.10;;
21356;SDS011;10836;53.068;18.234;2023-04-15T10:21:08;24.33;;;15.03;;
21356;SDS011;10836;53.068;18.234;2023-04-15T10:23:35;20.85;;;13.35;;
21356;SDS011;10836;53.068;18.234;2023-04-15T10:26:04;23.90;;;14.70;;
21356;SDS011;10836;53.068;18.234;2023-04-15T10:28:31;22.83;;;13.80;;
21356;SDS011;10836;53.068;18.234;2023-04-15T10:30:58;26.20;;;14.30;;
21356;SDS011;10836;53.068;18.234;2023-04-15T10:33:27;21.57;;;13.20;;
21356;SDS011;10836;53.068;18.234;2023-04-15T10:35:55;22.08;;;12.90;;
21356;SDS011;10836;53.068;18.234;2023-04-15T10:41:44;20.07;;;12.53;;
21356;SDS011;10836;53.068;18.234;2023-04-15T10:43:54;21.05;;;12.07;;
21356;SDS011;10836;53.068;18.234;2023-04-15T10:46:33;16.90;;;11.13;;
21356;SDS011;10836;53.068;18.234;2023-04-15T10:49:07;18.10;;;11.23;;
21356;SDS011;10836;53.068;18.234;2023-04-15T10:51:39;20.40;;;12.98;;
21356;SDS011;10836;53.068;18.234;2023-04-15T10:54:09;19.63;;;12.37;;
21356;SDS011;10836;53.068;18.234;2023-04-15T10:56:43;20.00;;;12.00;;
21356;SDS011;10836;53.068;18.234;2023-04-15T10:59:11;19.10;;;10.37;;
21356;SDS011;10836;53.068;18.234;2023-04-15T11:01:54;18.60;;;10.90;;
21356;SDS011;10836;53.068;18.234;2023-04-15T11:07:39;19.27;;;12.10;;
21356;SDS011;10836;53.068;18.234;2023-04-15T11:12:44;16.98;;;11.32;;
21356;SDS011;10836;53.068;18.234;2023-04-15T11:16:12;16.43;;;10.63;;
21356;SDS011;10836;53.068;18.234;2023-04-15T11:20:44;16.38;;;10.70;;
21356;SDS011;10836;53.068;18.234;2023-04-15T11:23:34;20.02;;;12.05;;
21356;SDS011;10836;53.068;18.234;2023-04-15T11:26:05;19.63;;;12.13;;
21356;SDS011;10836;53.068;18.234;2023-04-15T11:28:35;19.37;;;12.07;;
21356;SDS011;10836;53.068;18.234;2023-04-15T11:31:09;15.67;;;10.03;;
21356;SDS011;10836;53.068;18.234;2023-04-15T11:33:43;16.47;;;10.47;;
21356;SDS011;10836;53.068;18.234;2023-04-15T11:36:25;16.03;;;10.33;;
21356;SDS011;10836;53.068;18.234;2023-04-15T11:38:54;20.50;;;10.43;;
21356;SDS011;10836;53.068;18.234;2023-04-15T11:41:23;19.93;;;12.63;;
21356;SDS011;10836;53.068;18.234;2023-04-15T11:43:50;14.60;;;9.60;;
21356;SDS011;10836;53.068;18.234;2023-04-15T11:46:17;13.93;;;8.90;;
21356;SDS011;10836;53.068;18.234;2023-04-15T11:48:45;13.93;;;9.10;;
21356;SDS011;10836;53.068;18.234;2023-04-15T11:51:13;18.30;;;10.07;;
21356;SDS011;10836;53.068;18.234;2023-04-15T11:53:46;17.63;;;10.50;;
21356;SDS011;10836;53.068;18.234;2023-04-15T11:56:19;19.80;;;12.27;;
21356;SDS011;10836;53.068;18.234;2023-04-15T11:58:48;20.53;;;12.27;;
21356;SDS011;10836;53.068;18.234;2023-04-15T12:01:18;15.20;;;10.03;;
21356;SDS011;10836;53.068;18.234;2023-04-15T12:03:45;18.17;;;10.98;;
21356;SDS011;10836;53.068;18.234;2023-04-15T12:06:15;21.37;;;11.87;;
21356;SDS011;10836;53.068;18.234;2023-04-15T12:13:48;17.10;;;11.70;;
21356;SDS011;10836;53.068;18.234;2023-04-15T12:16:17;19.30;;;11.20;;
21356;SDS011;10836;53.068;18.234;2023-04-15T12:18:45;18.27;;;11.73;;
21356;SDS011;10836;53.068;18.234;2023-04-15T12:21:13;19.23;;;12.60;;
21356;SDS011;10836;53.068;18.234;2023-04-15T12:23:48;17.30;;;11.43;;
21356;SDS011;10836;53.068;18.234;2023-04-15T12:26:16;28.90;;;15.00;;
21356;SDS011;10836;53.068;18.234;2023-04-15T12:28:44;21.87;;;13.23;;
21356;SDS011;10836;53.068;18.234;2023-04-15T12:31:12;18.30;;;11.63;;
21356;SDS011;10836;53.068;18.234;2023-04-15T12:33:40;20.13;;;13.27;;
21356;SDS011;10836;53.068;18.234;2023-04-15T12:36:07;21.53;;;12.50;;
21356;SDS011;10836;53.068;18.234;2023-04-15T12:38:35;19.20;;;12.50;;
21356;SDS011;10836;53.068;18.234;2023-04-15T12:41:01;19.98;;;11.70;;
21356;SDS011;10836;53.068;18.234;2023-04-15T12:43:29;19.08;;;12.70;;
21356;SDS011;10836;53.068;18.234;2023-04-15T12:45:55;18.73;;;11.52;;
21356;SDS011;10836;53.068;18.234;2023-04-15T12:48:23;19.25;;;12.70;;
21356;SDS011;10836;53.068;18.234;2023-04-15T12:50:50;18.27;;;12.15;;
21356;SDS011;10836;53.068;18.234;2023-04-15T12:53:17;18.10;;;11.47;;
21356;SDS011;10836;53.068;18.234;2023-04-15T12:55:43;17.10;;;12.07;;
21356;SDS011;10836;53.068;18.234;2023-04-15T12:58:11;18.55;;;11.82;;
21356;SDS011;10836;53.068;18.234;2023-04-15T13:00:37;18.73;;;13.20;;
21356;SDS011;10836;53.068;18.234;2023-04-15T13:03:05;21.17;;;13.03;;
21356;SDS011;10836;53.068;18.234;2023-04-15T13:05:32;25.03;;;12.43;;
21356;SDS011;10836;53.068;18.234;2023-04-15T13:08:00;24.35;;;15.90;;
21356;SDS011;10836;53.068;18.234;2023-04-15T13:10:27;29.13;;;17.60;;
21356;SDS011;10836;53.068;18.234;2023-04-15T13:12:55;44.60;;;22.45;;
21356;SDS011;10836;53.068;18.234;2023-04-15T13:15:22;69.35;;;32.17;;
21356;SDS011;10836;53.068;18.234;2023-04-15T13:17:49;68.30;;;28.37;;
21356;SDS011;10836;53.068;18.234;2023-04-15T13:20:16;45.28;;;20.65;;
21356;SDS011;10836;53.068;18.234;2023-04-15T13:22:44;40.95;;;23.15;;
21356;SDS011;10836;53.068;18.234;2023-04-15T13:25:11;19.83;;;12.33;;
21356;SDS011;10836;53.068;18.234;2023-04-15T13:27:38;30.05;;;15.82;;
21356;SDS011;10836;53.068;18.234;2023-04-15T13:30:05;23.65;;;13.93;;
21356;SDS011;10836;53.068;18.234;2023-04-15T13:32:33;17.90;;;11.35;;
21356;SDS011;10836;53.068;18.234;2023-04-15T13:35:00;15.75;;;10.23;;
21356;SDS011;10836;53.068;18.234;2023-04-15T13:37:27;17.92;;;10.23;;
21356;SDS011;10836;53.068;18.234;2023-04-15T13:39:57;15.40;;;9.90;;
21356;SDS011;10836;53.068;18.234;2023-04-15T13:42:24;15.70;;;10.18;;
21356;SDS011;10836;53.068;18.234;2023-04-15T13:44:50;16.73;;;10.90;;
21356;SDS011;10836;53.068;18.234;2023-04-15T13:47:18;15.50;;;10.40;;
21356;SDS011;10836;53.068;18.234;2023-04-15T13:49:45;16.47;;;9.83;;
21356;SDS011;10836;53.068;18.234;2023-04-15T13:52:12;13.02;;;8.75;;
21356;SDS011;10836;53.068;18.234;2023-04-15T13:54:39;13.23;;;8.23;;
21356;SDS011;10836;53.068;18.234;2023-04-15T13:57:06;19.02;;;11.07;;
21356;SDS011;10836;53.068;18.234;2023-04-15T13:59:33;23.33;;;11.80;;
21356;SDS011;10836;53.068;18.234;2023-04-15T14:02:03;31.63;;;16.57;;
21356;SDS011;10836;53.068;18.234;2023-04-15T14:04:30;25.27;;;14.02;;
21356;SDS011;10836;53.068;18.234;2023-04-15T14:06:58;20.33;;;11.82;;
21356;SDS011;10836;53.068;18.234;2023-04-15T14:09:25;19.88;;;11.35;;
21356;SDS011;10836;53.068;18.234;2023-04-15T14:11:53;20.50;;;11.80;;
21356;SDS011;10836;53.068;18.234;2023-04-15T14:14:20;20.03;;;11.60;;
21356;SDS011;10836;53.068;18.234;2023-04-15T14:16:47;15.98;;;10.27;;
21356;SDS011;10836;53.068;18.234;2023-04-15T14:19:14;14.00;;;9.15;;
21356;SDS011;10836;53.068;18.234;2023-04-15T14:21:41;15.63;;;10.33;;
21356;SDS011;10836;53.068;18.234;2023-04-15T14:24:08;13.60;;;8.27;;
21356;SDS011;10836;53.068;18.234;2023-04-15T14:26:36;13.23;;;8.73;;
21356;SDS011;10836;53.068;18.234;2023-04-15T14:29:03;13.83;;;9.40;;
21356;SDS011;10836;53.068;18.234;2023-04-15T14:31:30;14.98;;;8.93;;
21356;SDS011;10836;53.068;18.234;2023-04-15T14:33:57;14.50;;;9.45;;
21356;SDS011;10836;53.068;18.234;2023-04-15T14:36:24;13.38;;;9.02;;
21356;SDS011;10836;53.068;18.234;2023-04-15T14:38:51;12.57;;;9.30;;